Charlotte Douglas International Airport

KCLT · 北卡罗来纳州, 美国

罗盘
风向 的 风向 020° 夏洛特道格拉斯國際機場 5/23
风: 7 kt, 3 beaufort

6 kt

3 kt
改变
0 1.000 2.000 3.000 4.000 5.000
OVC 4.500 ft
METAR KAKH 030054Z AUTO 02007KT 10SM OVC045 17/12 A3006 RMK AO2 SLP175 T01670117

METAR 夏洛特道格拉斯國際機場 - KCLT/CLT

夏洛特道格拉斯國際機場是Charlotte,美国中的大型机场。 该机场有5条跑道: 5/23, 18C/36C, 18L/36R, 18R/36L 和 18/36. 该领域的国际民航组织标志是KCLT 它的国际航空运输协会代码是CLT.

这份报告是针对2022年10月2日 20:54, 当地时间在Gastonia Municipal Airport进行的。

机场观察

风向为020°,速度为7 kt。

可见度为10 mi。

有乌云密布在4.500 ft的高度。 破损或更高的上限为4.500 ft。

温度和风寒是17 °C。 露点为12 °C,相对湿度为73%。 海平面上的气压为30,06 inHg (QNH)。

白天

今天,太阳从07:20升起,在19:05降落。 这适用于夏洛特道格拉斯國際機場,世界夏令时可能有所不同。 当地时间与世界标准时间之间的时差为-4 小时。 夏令时目前正在进行中。

公司介绍

在这个机场,你可以找到飞行学校。 本场上唯一已知的公司是Carolina Flight Academy。

体会

到Vliegles.nl去找飞行课程,跳伞和其他飞行体验。 浏览页面,了解夏洛特道格拉斯國際機場附近所有可用的活动。 你也可以使用搜索功能来寻找你所在地附近的特定飞行课程、跳伞或其他飞行体验。

跑道

Id 标题 侧风 逆风 侧风 %
5/23 049°-229° 3 kt 6 kt 48 %
18C/36C 176°-356° 3 kt 6 kt 41 %
18L/36R 176°-356° 3 kt 6 kt 41 %
18R/36L 176°-356° 3 kt 6 kt 41 %
18/36 176°-356° 3 kt 6 kt 41 %

逆风成分最大的方向会被突出显示,并用于横风计算。 这并不一定意味着这个方向在使用。

乌云

4.500 ft OVC 乌云密布

温度 & 天气

温度 16,7 °C
露点 11,7 °C
相对湿度 73%
Kp-index 3 (0-9)

评论

AO2自动气象站,可确定降水类型
SLP175海平面压力为30,05 inHg (30,05 inHg)
T01670117温度为16,7 °C (62,1 °F),露点为11,7 °C (53,1 °F)

白天

日出
07:21 (9h 59m)
中午
13:13
日落
19:05

小工具

你想在你的网站上有一个关于夏洛特道格拉斯國際機場的当前航空天气(METAR)的小部件吗?

</> 显示HTML代码

我们和第三方通过cookies跟踪您在我们网站上的上网行为。如果您继续,我们认为您同意我们的cookie政策。 了解更多